Time;durP1;ratioP1;P1;durP2;ratioP2;P2;SDS_P1;SDS_P2;PMS_P1;PMS_P2;Temp;Humidity;BMP_temperature;BMP_pressure;BME280_temperature;BME280_humidity;BME280_pressure;Samples;Min_cycle;Max_cycle;Signal;HPM_P1;HPM_P2
2021/01/28 00:00:25;;;;;;;;;1.00;0.00;20.80;65.50;;;19.64;50.88;100490.31;5020037;28;8826;-59
2021/01/28 00:02:52;;;;;;;;;0.00;0.00;20.70;65.50;;;19.66;50.88;100484.75;5026200;28;8813;-59
2021/01/28 00:05:20;;;;;;;;;0.00;0.00;20.90;65.60;;;19.64;50.76;100462.63;5023284;28;8879;-58
2021/01/28 00:07:47;;;;;;;;;0.75;0.00;20.70;65.30;;;19.63;50.70;100471.69;5024936;28;8875;-59
2021/01/28 00:10:17;;;;;;;;;0.00;0.00;20.90;65.70;;;19.61;50.87;100490.59;5027686;28;8836;-59
2021/01/28 00:12:44;;;;;;;;;0.00;0.00;20.80;65.40;;;19.61;51.02;100471.84;5032952;28;8798;-59
2021/01/28 00:15:13;;;;;;;;;0.00;0.00;20.70;66.00;;;19.64;51.03;100468.84;5023933;28;8828;-59
2021/01/28 00:17:39;;;;;;;;;0.00;0.00;20.80;65.80;;;19.68;50.79;100475.56;5026675;28;9513;-59
2021/01/28 00:20:33;;;;;;;;;0.00;0.00;20.70;65.50;;;19.68;50.99;100475.56;5022188;28;8848;-60
2021/01/28 00:23:01;;;;;;;;;0.00;0.00;20.90;65.50;;;19.66;50.91;100455.28;5026330;28;8868;-59
2021/01/28 00:25:28;;;;;;;;;1.00;0.00;20.70;65.50;;;19.65;50.71;100442.91;5026225;28;8843;-59
2021/01/28 00:27:55;;;;;;;;;1.00;0.75;20.80;65.40;;;19.62;50.78;100446.75;5028958;28;8797;-59
2021/01/28 00:30:34;;;;;;;;;0.00;0.00;20.80;65.40;;;19.61;51.08;100439.69;5021042;28;8826;-58
2021/01/28 00:33:01;;;;;;;;;0.50;0.50;20.70;66.00;;;19.65;50.97;100450.94;5023051;28;9772;-59
2021/01/28 00:35:35;;;;;;;;;1.00;0.00;20.80;65.80;;;19.66;50.85;100458.78;5026758;28;8814;-60
2021/01/28 00:38:05;;;;;;;;;0.00;0.00;20.90;65.80;;;19.66;51.03;100474.88;5028252;28;8999;-60
2021/01/28 00:40:32;;;;;;;;;0.00;0.00;20.80;65.50;;;19.63;50.95;100475.22;5024847;28;8818;-60
2021/01/28 00:43:00;;;;;;;;;0.00;0.00;20.80;65.40;;;19.63;51.08;100467.16;5025344;28;8791;-60
2021/01/28 00:45:30;;;;;;;;;0.00;0.00;20.60;65.50;;;19.62;51.36;100444.06;5026169;28;8770;-61
2021/01/28 00:47:58;;;;;;;;;0.00;0.00;20.80;66.10;;;19.69;50.85;100445.09;5022185;28;8848;-62
2021/01/28 00:50:30;;;;;;;;;0.00;0.00;20.90;65.70;;;19.75;53.05;100443.59;5025735;28;8826;-60
2021/01/28 00:52:57;;;;;;;;;0.00;0.00;21.00;65.40;;;19.77;50.96;100456.81;5029602;28;8795;-62
2021/01/28 00:55:25;;;;;;;;;0.00;0.00;21.10;65.80;;;19.73;49.21;100459.81;5020118;28;8820;-65
2021/01/28 00:57:52;;;;;;;;;0.00;0.00;20.80;64.40;;;19.63;48.30;100435.00;5014652;28;8824;-63
2021/01/28 01:00:40;;;;;;;;;0.00;0.00;20.70;63.00;;;19.69;49.64;100446.94;5029633;28;8810;-61
2021/01/28 01:03:09;;;;;;;;;0.00;0.00;20.60;65.00;;;19.76;49.72;100396.19;5024151;28;8872;-63
2021/01/28 01:05:38;;;;;;;;;0.00;0.00;20.70;64.90;;;19.79;49.28;100417.28;5021545;28;8888;-61
2021/01/28 01:08:12;;;;;;;;;1.00;0.00;20.90;64.20;;;19.81;49.12;100434.03;5022648;28;8795;-63
2021/01/28 01:10:58;;;;;;;;;0.60;0.60;20.90;64.20;;;19.80;49.42;100443.91;5016967;28;8858;-63
2021/01/28 01:13:31;;;;;;;;;0.00;0.00;20.80;64.20;;;19.84;49.88;100431.00;5018324;28;8863;-63
2021/01/28 01:15:59;;;;;;;;;0.00;0.00;21.10;64.90;;;19.92;50.49;100428.28;5027620;28;8811;-62
2021/01/28 01:18:32;;;;;;;;;0.00;0.00;21.10;65.20;;;19.93;49.82;100414.72;5011459;28;8904;-63
2021/01/28 01:21:01;;;;;;;;;0.00;0.00;21.10;64.40;;;19.94;49.64;100407.53;5029374;28;8794;-63
2021/01/28 01:23:28;;;;;;;;;0.00;0.00;21.30;64.40;;;19.95;49.72;100396.63;5026914;28;9587;-60
2021/01/28 01:25:55;;;;;;;;;0.00;0.00;21.10;64.40;;;19.96;49.83;100408.19;5021692;28;8795;-61
2021/01/28 01:28:22;;;;;;;;;0.00;0.00;21.10;65.00;;;19.97;50.50;100427.78;5023491;28;8855;-59
2021/01/28 01:30:49;;;;;;;;;0.00;0.00;21.10;65.40;;;19.98;50.45;100416.91;5020925;28;8927;-61
2021/01/28 01:33:16;;;;;;;;;0.00;0.00;21.10;65.30;;;20.02;50.39;100407.50;5018006;28;8829;-60
2021/01/28 01:35:43;;;;;;;;;0.00;0.00;21.20;65.20;;;20.04;50.24;100404.66;5026412;28;8927;-60
2021/01/28 01:38:10;;;;;;;;;0.00;0.00;21.30;64.80;;;20.06;50.03;100400.78;5022661;28;8814;-59
2021/01/28 01:40:50;;;;;;;;;0.00;0.00;21.40;65.10;;;20.07;50.13;100402.44;5012528;28;8867;-61
2021/01/28 01:43:17;;;;;;;;;0.00;0.00;21.40;65.00;;;20.07;50.18;100399.78;5016142;28;8881;-61
2021/01/28 01:45:59;;;;;;;;;0.00;0.00;21.50;65.20;;;20.06;50.46;100408.00;5013892;28;8796;-60
2021/01/28 01:48:32;;;;;;;;;0.00;0.00;21.30;65.00;;;20.10;50.29;100422.75;5008962;28;8844;-59
2021/01/28 01:51:56;;;;;;;;;0.00;0.00;21.30;65.10;;;20.14;50.23;100419.53;5014874;28;8831;-59
2021/01/28 01:54:36;;;;;;;;;1.00;0.00;21.40;64.80;;;20.16;50.01;100422.88;4987624;28;8915;-60
2021/01/28 01:57:14;;;;;;;;;0.00;0.00;21.50;64.70;;;20.19;50.03;100426.22;5009216;28;8807;-60
2021/01/28 01:59:53;;;;;;;;;0.00;0.00;21.60;64.60;;;20.19;49.98;100434.28;5028980;28;8805;-60
2021/01/28 02:02:23;;;;;;;;;0.00;0.00;21.40;64.70;;;20.21;50.15;100434.94;5021890;28;8875;-61
2021/01/28 02:05:01;;;;;;;;;0.00;0.00;21.40;65.10;;;20.23;50.08;100441.81;5011249;28;8814;-61
2021/01/28 02:07:28;;;;;;;;;0.00;0.00;21.30;64.70;;;20.25;49.98;100441.63;5022874;28;8792;-62
2021/01/28 02:09:56;;;;;;;;;0.00;0.00;21.50;64.60;;;20.23;49.75;100441.81;5025465;28;8817;-62
2021/01/28 02:12:26;;;;;;;;;0.60;0.00;21.20;64.60;;;20.23;49.89;100447.19;5023700;28;8815;-62
2021/01/28 02:14:54;;;;;;;;;0.60;0.00;21.40;64.90;;;20.23;49.92;100446.34;5010493;28;8820;-59
2021/01/28 02:17:26;;;;;;;;;1.00;0.00;21.30;65.20;;;20.22;49.95;100450.03;5026082;28;8800;-58
2021/01/28 02:19:56;;;;;;;;;1.00;0.20;21.10;65.30;;;20.18;49.93;100449.53;5019831;28;8832;-60
2021/01/28 02:22:40;;;;;;;;;1.20;1.20;21.20;65.30;;;20.20;50.05;100450.22;5026246;28;8814;-59
2021/01/28 02:25:35;;;;;;;;;0.25;0.25;21.20;65.50;;;20.25;49.91;100453.22;5024964;28;8782;-60
2021/01/28 02:28:09;;;;;;;;;0.00;0.00;21.40;64.90;;;20.25;49.78;100450.53;5025144;28;8972;-59
2021/01/28 02:30:38;;;;;;;;;0.00;0.00;21.20;64.70;;;20.24;49.75;100454.19;5006163;28;8917;-59
2021/01/28 02:33:08;;;;;;;;;1.00;1.00;21.40;64.80;;;20.22;50.09;100450.84;5033037;28;8768;-59
2021/01/28 02:35:36;;;;;;;;;0.00;0.00;21.20;65.30;;;20.28;49.82;100438.63;5030229;28;8796;-59
2021/01/28 02:38:09;;;;;;;;;0.00;0.00;21.20;64.90;;;20.31;49.88;100439.09;5024191;28;8845;-59
2021/01/28 02:40:38;;;;;;;;;1.20;0.00;21.50;64.70;;;20.31;49.70;100427.53;5033093;28;8873;-59
2021/01/28 02:43:05;;;;;;;;;0.00;0.00;21.50;64.80;;;20.30;49.71;100437.44;5024551;28;8802;-59
2021/01/28 02:45:36;;;;;;;;;0.00;0.00;21.40;64.70;;;20.27;49.93;100434.25;5022271;28;10734;-59
2021/01/28 02:48:10;;;;;;;;;0.60;0.00;21.30;65.20;;;20.32;49.79;100432.72;5023783;28;8777;-59
2021/01/28 02:50:37;;;;;;;;;0.80;0.00;21.40;65.20;;;20.39;49.71;100427.50;5030681;28;8829;-59
2021/01/28 02:53:07;;;;;;;;;0.80;0.80;21.50;64.80;;;20.38;49.65;100428.53;5028038;28;8772;-64
2021/01/28 02:55:35;;;;;;;;;0.00;0.00;21.60;64.70;;;20.39;49.58;100424.81;5030966;28;8779;-59
2021/01/28 02:58:02;;;;;;;;;0.00;0.00;21.50;64.70;;;20.36;49.73;100433.22;5028027;28;8831;-60
2021/01/28 03:00:36;;;;;;;;;0.60;0.60;21.40;64.80;;;20.35;49.71;100432.38;5024813;28;8792;-59
2021/01/28 03:03:13;;;;;;;;;0.60;0.00;21.20;64.90;;;20.29;49.84;100425.00;5020260;28;8806;-62
2021/01/28 03:05:40;;;;;;;;;0.20;0.20;21.30;65.30;;;20.25;49.74;100422.84;5025952;28;8791;-62
2021/01/28 03:08:07;;;;;;;;;0.00;0.00;21.40;65.40;;;20.21;49.85;100419.69;5025478;28;8797;-62
2021/01/28 03:10:35;;;;;;;;;1.00;0.00;21.10;65.20;;;20.19;50.02;100424.38;5025682;28;8810;-62
2021/01/28 03:13:02;;;;;;;;;1.00;0.80;21.20;65.50;;;20.13;50.02;100420.56;5023545;28;8813;-62
2021/01/28 03:15:30;;;;;;;;;0.75;0.75;21.20;65.40;;;20.09;50.15;100416.53;5023597;28;8786;-62
2021/01/28 03:17:57;;;;;;;;;0.00;0.00;21.10;65.50;;;20.05;50.15;100409.84;5025781;28;8773;-62
2021/01/28 03:20:25;;;;;;;;;0.75;0.75;21.40;65.70;;;20.04;50.14;100413.53;5027949;28;8925;-62
2021/01/28 03:22:52;;;;;;;;;0.00;0.00;21.30;65.50;;;20.01;50.33;100405.00;5021129;28;8913;-62
2021/01/28 03:25:21;;;;;;;;;1.00;1.00;21.20;65.80;;;19.96;50.03;100405.50;5023514;28;8801;-62
2021/01/28 03:27:48;;;;;;;;;1.00;1.00;21.20;65.60;;;19.92;50.31;100406.84;5033919;28;8813;-62
2021/01/28 03:30:28;;;;;;;;;0.00;0.00;21.20;65.70;;;19.89;50.23;100408.03;5018909;28;8812;-62
2021/01/28 03:32:55;;;;;;;;;0.25;0.25;21.00;65.80;;;19.87;50.26;100410.06;5023932;28;8775;-62
2021/01/28 03:35:24;;;;;;;;;1.00;0.00;21.00;65.40;;;19.81;50.35;100397.31;5022977;28;8867;-62
2021/01/28 03:37:52;;;;;;;;;0.00;0.00;21.00;65.50;;;19.79;50.36;100380.56;5029985;28;8791;-62
2021/01/28 03:40:25;;;;;;;;;0.75;0.75;21.00;65.90;;;19.78;50.31;100372.72;5020098;28;8828;-62
2021/01/28 03:42:52;;;;;;;;;1.00;0.00;20.80;65.50;;;19.75;50.38;100391.84;5033331;28;9507;-62
2021/01/28 03:45:19;;;;;;;;;0.00;0.00;20.90;65.50;;;19.73;50.47;100408.06;5023893;28;8829;-62
2021/01/28 03:47:46;;;;;;;;;0.00;0.00;20.90;65.70;;;19.69;50.44;100402.22;5025299;28;8867;-62
2021/01/28 03:50:18;;;;;;;;;0.00;0.00;20.80;65.50;;;19.68;50.57;100407.75;5024526;28;8938;-63
2021/01/28 03:52:45;;;;;;;;;0.50;0.50;20.90;65.50;;;19.63;50.49;100402.84;5032929;28;8820;-63
2021/01/28 03:55:12;;;;;;;;;1.50;1.00;20.90;65.40;;;19.63;50.71;100404.72;5032816;28;8856;-62
2021/01/28 03:57:39;;;;;;;;;0.00;0.00;20.90;65.40;;;19.62;50.60;100401.19;5024644;28;9468;-62
2021/01/28 04:00:11;;;;;;;;;0.00;0.00;21.00;65.40;;;19.59;50.54;100406.03;5023722;28;8798;-63
2021/01/28 04:02:37;;;;;;;;;0.00;0.00;20.70;65.40;;;19.55;50.75;100402.88;5020582;28;8896;-63
2021/01/28 04:05:07;;;;;;;;;1.00;1.00;20.60;66.00;;;19.52;50.67;100396.00;5019750;28;8804;-62
2021/01/28 04:07:33;;;;;;;;;1.00;1.00;20.70;65.80;;;19.53;50.57;100420.94;5017740;28;8826;-63
2021/01/28 04:10:00;;;;;;;;;0.00;0.00;20.60;65.60;;;19.51;50.83;100420.28;5020015;28;8838;-63
2021/01/28 04:12:27;;;;;;;;;1.00;1.00;20.80;65.80;;;19.49;50.78;100423.16;5024826;28;8778;-63
2021/01/28 04:14:54;;;;;;;;;0.00;0.00;20.60;65.80;;;19.45;51.17;100427.16;5020056;28;8815;-63
2021/01/28 04:17:21;;;;;;;;;0.00;0.00;20.60;66.20;;;19.46;51.59;100434.19;5021797;28;8822;-63
2021/01/28 04:19:48;;;;;;;;;0.25;0.25;20.80;66.70;;;19.51;51.47;100436.34;5030306;28;8850;-63
2021/01/28 04:22:15;;;;;;;;;0.00;0.00;20.90;66.20;;;19.52;51.39;100438.03;5025262;28;8837;-62
2021/01/28 04:24:42;;;;;;;;;0.00;0.00;20.70;65.90;;;19.48;51.29;100442.06;5034788;28;9521;-62
2021/01/28 04:27:09;;;;;;;;;0.00;0.00;20.70;66.00;;;19.47;51.71;100437.72;5024427;28;8843;-63
2021/01/28 04:29:36;;;;;;;;;0.00;0.00;20.60;66.10;;;19.46;51.69;100430.66;5029761;28;8796;-63
2021/01/28 04:32:03;;;;;;;;;0.00;0.00;20.60;66.30;;;19.43;51.91;100439.03;5021655;28;9570;-63
2021/01/28 04:34:30;;;;;;;;;1.50;0.25;20.60;66.30;;;19.43;51.62;100428.31;5024377;28;8798;-63
2021/01/28 04:36:57;;;;;;;;;0.25;0.25;20.60;66.40;;;19.42;51.70;100432.03;5016000;28;8886;-63
2021/01/28 04:39:23;;;;;;;;;0.00;0.00;20.50;66.60;;;19.45;52.07;100429.84;5024805;28;8844;-64
2021/01/28 04:41:51;;;;;;;;;0.00;0.00;20.60;66.60;;;19.48;51.86;100426.81;5023088;28;9356;-63
2021/01/28 04:44:18;;;;;;;;;0.00;0.00;20.60;66.00;;;19.48;51.68;100423.31;5011124;28;8912;-62
2021/01/28 04:46:54;;;;;;;;;0.00;0.00;20.70;65.90;;;19.46;51.75;100422.63;5026235;28;8802;-62
2021/01/28 04:49:26;;;;;;;;;0.00;0.00;20.70;66.10;;;19.45;51.73;100423.63;5019393;28;8846;-62
2021/01/28 04:52:03;;;;;;;;;0.00;0.00;20.60;66.30;;;19.42;51.99;100429.34;5025679;28;8793;-62
2021/01/28 04:54:35;;;;;;;;;0.00;0.00;20.40;66.40;;;19.41;52.23;100433.88;5010939;28;8813;-65
2021/01/28 04:57:11;;;;;;;;;0.00;0.00;20.60;66.60;;;19.38;52.08;100434.19;5017783;28;8929;-64
2021/01/28 04:59:47;;;;;;;;;0.00;0.00;20.60;66.20;;;19.37;52.11;100437.88;5009102;28;8899;-65
2021/01/28 05:02:26;;;;;;;;;1.00;1.00;20.70;66.60;;;19.38;51.81;100428.81;5007327;28;8792;-65
2021/01/28 05:05:02;;;;;;;;;0.00;0.00;20.40;66.40;;;19.44;51.73;100443.41;5005503;28;8841;-59
2021/01/28 05:07:33;;;;;;;;;0.00;0.00;20.70;66.10;;;19.46;51.83;100428.84;5025619;28;8777;-59
2021/01/28 05:10:10;;;;;;;;;0.00;0.00;20.70;65.70;;;19.45;51.49;100431.69;5019697;28;8860;-60
2021/01/28 05:12:38;;;;;;;;;0.00;0.00;20.80;65.60;;;19.42;51.67;100427.50;5007439;28;8794;-60
2021/01/28 05:15:38;;;;;;;;;0.00;0.00;20.80;65.80;;;19.40;51.70;100426.81;5006385;28;8812;-59
2021/01/28 05:18:31;;;;;;;;;0.00;0.00;20.60;65.80;;;19.40;51.81;100434.03;5030915;28;8889;-63
2021/01/28 05:21:22;;;;;;;;;1.00;1.00;20.60;66.40;;;19.39;52.05;100438.56;5020707;28;8803;-61
2021/01/28 05:23:59;;;;;;;;;0.00;0.00;20.50;66.40;;;19.45;51.86;100442.41;5025978;28;8800;-60
2021/01/28 05:26:43;;;;;;;;;0.00;0.00;20.80;66.50;;;19.47;51.70;100437.72;5011784;28;8791;-61
2021/01/28 05:29:30;;;;;;;;;0.00;0.00;20.80;65.80;;;19.46;51.66;100433.34;5020453;28;8850;-60
2021/01/28 05:32:00;;;;;;;;;0.00;0.00;20.80;65.80;;;19.44;51.73;100427.34;5028299;28;8883;-60
2021/01/28 05:34:34;;;;;;;;;0.00;0.00;20.70;66.00;;;19.43;51.69;100433.69;5025370;28;8822;-61
2021/01/28 05:37:11;;;;;;;;;0.00;0.00;20.70;66.30;;;19.41;51.92;100433.00;5022427;28;8867;-61
2021/01/28 05:39:41;;;;;;;;;0.00;0.00;20.40;66.20;;;19.39;51.85;100427.00;5023628;28;8802;-61
2021/01/28 05:42:19;;;;;;;;;0.00;0.00;20.60;66.50;;;19.40;52.04;100420.63;5022367;28;8894;-61
2021/01/28 05:44:46;;;;;;;;;0.75;0.00;20.80;67.00;;;19.44;51.61;100414.78;5023252;28;8743;-61
2021/01/28 05:47:33;;;;;;;;;0.00;0.00;20.70;66.30;;;19.46;51.39;100433.34;5010137;28;8813;-61
2021/01/28 05:50:25;;;;;;;;;0.00;0.00;20.90;65.70;;;19.44;51.72;100412.09;5016677;28;8848;-60
2021/01/28 05:53:06;;;;;;;;;0.00;0.00;20.60;65.60;;;19.43;51.84;100413.09;5025914;28;8891;-60
2021/01/28 05:55:33;;;;;;;;;0.50;0.00;20.70;66.00;;;19.41;51.99;100406.22;5009532;28;8784;-60
2021/01/28 05:58:06;;;;;;;;;0.00;0.00;20.70;66.40;;;19.40;52.10;100413.41;5020401;28;8793;-60
2021/01/28 06:00:59;;;;;;;;;0.00;0.00;20.60;66.50;;;19.36;52.26;100422.81;5019492;28;8823;-59
2021/01/28 06:04:06;;;;;;;;;0.00;0.00;20.50;66.70;;;19.40;52.88;100428.66;5021750;28;8810;-60
2021/01/28 06:07:33;;;;;;;;;0.00;0.00;20.60;67.20;;;19.43;52.07;100422.97;5027586;28;8794;-58
2021/01/28 06:10:20;;;;;;;;;0.00;0.00;20.80;66.40;;;19.43;51.98;100439.03;5027249;28;8833;-60
2021/01/28 06:13:20;;;;;;;;;0.00;0.00;20.80;66.10;;;19.40;52.09;100442.06;5023862;28;8783;-60
2021/01/28 06:16:23;;;;;;;;;0.00;0.00;20.80;66.40;;;19.39;52.28;100443.06;5025848;28;8812;-60
2021/01/28 06:19:31;;;;;;;;;0.25;0.00;20.60;66.50;;;19.35;52.42;100428.34;5008846;28;8817;-60
2021/01/28 06:22:29;;;;;;;;;0.00;0.00;20.50;66.70;;;19.34;52.72;100448.09;5018185;28;9597;-61
2021/01/28 06:25:17;;;;;;;;;0.75;0.00;20.60;67.00;;;19.31;52.51;100451.94;5010998;28;8860;-60
2021/01/28 06:28:34;;;;;;;;;0.00;0.00;20.60;67.00;;;19.30;52.78;100459.13;5017655;28;8828;-59
2021/01/28 06:31:56;;;;;;;;;0.00;0.00;20.50;67.00;;;19.28;52.71;100454.94;5030545;28;8843;-60
2021/01/28 06:34:57;;;;;;;;;0.75;0.00;20.30;67.00;;;19.25;52.64;100464.13;5024478;28;8829;-60
2021/01/28 06:37:48;;;;;;;;;0.00;0.00;20.50;67.30;;;19.25;52.65;100445.38;5035043;28;8793;-61
2021/01/28 06:40:27;;;;;;;;;0.00;0.00;20.30;67.20;;;19.21;52.64;100436.03;5018335;28;8794;-60
2021/01/28 06:42:58;;;;;;;;;3.50;2.00;20.40;67.30;;;19.21;52.74;100448.56;5019735;28;8780;-60
2021/01/28 06:45:34;;;;;;;;;0.00;0.00;20.40;67.40;;;19.18;52.83;100449.72;5014055;28;8800;-60
2021/01/28 06:48:30;;;;;;;;;0.00;0.00;20.30;67.30;;;19.16;52.89;100446.41;5021209;28;8782;-60
2021/01/28 06:51:43;;;;;;;;;0.00;0.00;20.40;67.40;;;19.15;52.80;100452.75;5014521;28;8922;-61
2021/01/28 06:54:28;;;;;;;;;1.00;0.00;20.10;67.30;;;19.12;52.98;100434.34;5018128;28;8790;-60
2021/01/28 06:57:17;;;;;;;;;0.00;0.00;20.40;67.50;;;19.10;53.19;100441.69;5020175;28;8840;-60
2021/01/28 07:00:08;;;;;;;;;1.00;1.00;20.40;67.50;;;19.09;53.14;100440.84;5012589;28;8865;-60
2021/01/28 07:03:04;;;;;;;;;0.00;0.00;20.30;67.50;;;19.07;53.18;100440.19;5012663;28;9000;-60
2021/01/28 07:05:34;;;;;;;;;0.00;0.00;20.30;67.50;;;19.06;53.19;100437.69;5013917;28;8891;-60
2021/01/28 07:08:28;;;;;;;;;0.00;0.00;20.30;67.60;;;19.03;53.21;100420.09;5018340;28;8825;-60
2021/01/28 07:10:55;;;;;;;;;0.00;0.00;20.10;67.50;;;19.01;53.34;100430.13;5011711;28;8855;-60
2021/01/28 07:13:29;;;;;;;;;0.00;0.00;20.20;67.60;;;19.01;53.27;100442.69;5022415;28;8810;-60
2021/01/28 07:16:34;;;;;;;;;0.00;0.00;20.20;67.60;;;19.01;53.50;100445.38;5024282;28;8762;-60
2021/01/28 07:19:15;;;;;;;;;0.00;0.00;20.20;67.70;;;19.00;53.39;100441.00;5018925;28;8814;-60
2021/01/28 07:21:50;;;;;;;;;0.75;0.25;20.40;67.80;;;18.98;53.42;100434.97;5006124;28;8789;-60
2021/01/28 07:24:36;;;;;;;;;0.00;0.00;20.00;67.70;;;18.95;53.44;100430.78;5012116;28;8775;-60
2021/01/28 07:27:12;;;;;;;;;0.00;0.00;20.20;67.90;;;18.97;53.47;100435.97;5019936;28;8778;-60
2021/01/28 07:29:43;;;;;;;;;1.00;0.00;20.30;68.00;;;18.95;53.55;100429.94;5024387;28;8822;-60
2021/01/28 07:32:33;;;;;;;;;0.00;0.00;20.20;67.90;;;18.94;53.79;100423.75;5032113;28;8778;-60
2021/01/28 07:35:29;;;;;;;;;0.00;0.00;20.20;67.90;;;18.92;53.51;100443.66;5012186;28;8823;-60
2021/01/28 07:38:32;;;;;;;;;1.00;0.00;20.40;68.00;;;18.91;53.75;100439.31;5015036;28;8887;-59
2021/01/28 07:41:11;;;;;;;;;0.50;0.50;20.20;67.80;;;18.88;53.74;100445.84;5023562;28;8804;-60
2021/01/28 07:43:52;;;;;;;;;0.00;0.00;20.20;68.00;;;18.87;53.89;100444.16;5021445;28;8833;-60
2021/01/28 07:46:28;;;;;;;;;0.00;0.00;20.20;68.00;;;18.86;53.71;100435.28;4998282;28;8788;-60
2021/01/28 07:49:15;;;;;;;;;0.00;0.00;20.30;68.10;;;18.85;53.97;100438.13;5026271;28;8778;-60
2021/01/28 07:51:52;;;;;;;;;0.00;0.00;20.00;68.00;;;18.85;54.07;100438.97;5016999;28;8796;-60
2021/01/28 07:54:25;;;;;;;;;0.00;0.00;20.10;68.00;;;18.82;54.05;100425.91;5014920;28;8797;-60
2021/01/28 07:57:02;;;;;;;;;0.00;0.00;20.10;68.10;;;18.83;53.97;100416.06;5043430;28;8795;-60
2021/01/28 07:59:53;;;;;;;;;0.00;0.00;20.20;68.20;;;18.82;54.07;100436.59;5028745;28;8771;-60
2021/01/28 08:02:29;;;;;;;;;0.50;0.00;20.10;68.30;;;18.81;54.05;100421.56;5013817;28;8779;-59
2021/01/28 08:05:06;;;;;;;;;0.00;0.00;20.20;68.90;;;18.79;54.34;100418.19;5023839;28;8811;-60
2021/01/28 08:08:02;;;;;;;;;0.25;0.00;20.00;68.30;;;18.78;54.13;100416.53;5017590;28;8769;-60
2021/01/28 08:10:36;;;;;;;;;0.50;0.00;20.00;68.30;;;18.78;54.15;100440.63;5024088;28;9628;-60
2021/01/28 08:13:27;;;;;;;;;1.00;0.00;20.20;68.50;;;18.77;54.37;100433.59;5030199;28;9640;-60
2021/01/28 08:15:59;;;;;;;;;1.00;0.00;20.10;68.40;;;18.77;54.25;100422.03;5010798;28;8854;-59
2021/01/28 08:18:29;;;;;;;;;0.00;0.00;20.00;68.30;;;18.74;54.31;100420.50;5030002;28;8830;-60
2021/01/28 08:21:18;;;;;;;;;0.00;0.00;20.00;68.40;;;18.75;54.21;100421.34;5025911;28;8812;-60
2021/01/28 08:23:46;;;;;;;;;0.25;0.00;20.00;68.40;;;18.73;54.36;100418.84;5021410;28;8789;-60
2021/01/28 08:26:29;;;;;;;;;0.00;0.00;20.00;68.30;;;18.71;54.22;100423.50;5025129;28;8833;-60
2021/01/28 08:29:21;;;;;;;;;0.00;0.00;19.90;68.30;;;18.70;54.60;100405.78;5035906;28;8786;-60
2021/01/28 08:31:55;;;;;;;;;0.00;0.00;20.20;68.50;;;18.71;54.48;100412.81;5028148;28;8793;-60
2021/01/28 08:34:29;;;;;;;;;0.25;0.00;19.90;68.30;;;18.68;54.35;100410.47;5014374;28;8827;-60
2021/01/28 08:37:11;;;;;;;;;0.00;0.00;20.10;68.50;;;18.69;54.59;100408.63;5005795;28;8806;-60
2021/01/28 08:39:37;;;;;;;;;0.00;0.00;20.00;68.50;;;18.68;54.74;100405.13;5030223;28;8905;-60
2021/01/28 08:42:14;;;;;;;;;0.00;0.00;19.90;68.50;;;18.68;54.40;100399.75;5026604;28;8806;-60
2021/01/28 08:44:45;;;;;;;;;0.00;0.00;20.10;68.70;;;18.65;54.76;100389.41;5031716;28;8861;-60
2021/01/28 08:47:20;;;;;;;;;0.00;0.00;20.10;68.70;;;18.65;54.94;100392.91;5028414;28;8811;-59
2021/01/28 08:50:15;;;;;;;;;0.00;0.00;20.00;68.60;;;18.66;55.02;100380.34;5022904;28;8812;-60
2021/01/28 08:52:45;;;;;;;;;0.00;0.00;20.00;68.90;;;18.64;54.90;100379.69;5028947;28;8840;-60
2021/01/28 08:55:24;;;;;;;;;0.00;0.00;20.10;68.90;;;18.64;54.57;100371.66;5026906;28;8846;-60
2021/01/28 08:57:53;;;;;;;;;0.50;0.50;19.70;68.60;;;18.63;54.87;100386.03;5013181;28;8892;-60
2021/01/28 09:00:22;;;;;;;;;0.00;0.00;19.90;68.80;;;18.64;54.75;100398.41;5007058;28;8801;-60
2021/01/28 09:02:53;;;;;;;;;0.00;0.00;19.80;68.70;;;18.63;54.76;100410.13;5021908;28;8886;-60
2021/01/28 09:05:32;;;;;;;;;0.00;0.00;19.90;68.80;;;18.60;54.87;100427.34;5012201;28;8784;-60
2021/01/28 09:08:03;;;;;;;;;0.00;0.00;19.80;68.80;;;18.59;54.92;100430.16;5006088;28;8788;-60
2021/01/28 09:10:40;;;;;;;;;0.00;0.00;20.00;68.90;;;18.58;54.77;100442.69;5028397;28;8806;-59
2021/01/28 09:13:15;;;;;;;;;0.00;0.00;19.90;68.80;;;18.58;54.82;100437.34;5019246;28;9387;-60
2021/01/28 09:15:42;;;;;;;;;0.00;0.00;19.90;69.60;;;18.58;54.97;100455.25;5026970;28;8842;-60
2021/01/28 09:18:36;;;;;;;;;0.00;0.00;19.90;69.00;;;18.59;54.87;100467.59;5031062;28;8891;-60
2021/01/28 09:21:17;;;;;;;;;0.00;0.00;19.70;68.90;;;18.57;54.97;100491.00;5033167;28;8937;-59
2021/01/28 09:24:17;;;;;;;;;0.00;0.00;19.80;69.00;;;18.57;54.97;100482.97;5041222;28;8765;-59
2021/01/28 09:26:46;;;;;;;;;0.00;0.00;19.80;69.10;;;18.57;55.04;100485.66;5035827;28;8814;-59
2021/01/28 09:29:32;;;;;;;;;0.00;0.00;19.80;69.10;;;18.55;55.00;100472.47;5029407;28;8896;-59
2021/01/28 09:32:31;;;;;;;;;0.00;0.00;19.80;69.10;;;18.54;55.29;100476.09;5025517;28;8812;-59
2021/01/28 09:35:17;;;;;;;;;0.00;0.00;19.80;69.10;;;18.54;55.14;100489.47;5011128;28;8820;-59
2021/01/28 09:38:06;;;;;;;;;0.25;0.00;19.80;69.10;;;18.54;54.98;100460.06;5038138;28;8790;-58
2021/01/28 09:40:38;;;;;;;;;0.00;0.00;19.80;69.10;;;18.52;55.12;100455.88;5034376;28;8792;-60
2021/01/28 09:43:32;;;;;;;;;0.00;0.00;19.80;69.10;;;18.53;55.06;100479.78;5032263;28;8815;-60
2021/01/28 09:46:10;;;;;;;;;0.00;0.00;20.00;69.10;;;18.50;55.38;100468.59;5031774;28;8849;-59
2021/01/28 09:48:41;;;;;;;;;0.00;0.00;19.80;69.10;;;18.51;55.27;100486.31;5009884;28;8808;-59
2021/01/28 09:51:10;;;;;;;;;0.00;0.00;19.80;69.00;;;18.49;55.30;100501.66;5028218;28;8828;-59
2021/01/28 09:53:38;;;;;;;;;0.00;0.00;19.60;68.90;;;18.50;55.38;100503.38;5028189;28;8817;-59
2021/01/28 09:56:06;;;;;;;;;0.00;0.00;19.80;69.20;;;18.48;55.27;100508.03;5029423;28;8882;-59
2021/01/28 09:58:32;;;;;;;;;0.00;0.00;19.80;69.30;;;18.48;55.58;100494.66;5037397;28;8820;-59
2021/01/28 10:00:59;;;;;;;;;0.50;0.00;19.80;69.30;;;18.49;55.34;100489.13;5036388;28;8812;-59
2021/01/28 10:03:26;;;;;;;;;0.00;0.00;19.60;69.20;;;18.46;55.37;100476.09;5027608;28;8808;-59
2021/01/28 10:05:53;;;;;;;;;0.00;0.00;19.80;69.30;;;18.46;55.42;100472.56;5038463;28;8794;-60
2021/01/28 10:08:20;;;;;;;;;0.00;0.00;19.80;69.30;;;18.46;55.42;100461.88;5044773;28;8790;-59
2021/01/28 10:10:47;;;;;;;;;0.75;0.00;19.60;69.10;;;18.44;55.24;100470.91;5024304;28;8806;-59
2021/01/28 10:13:17;;;;;;;;;0.00;0.00;19.70;69.20;;;18.45;55.57;100477.09;5037004;28;8802;-61
2021/01/28 10:15:44;;;;;;;;;0.00;0.00;19.80;69.30;;;18.43;55.20;100474.56;5004924;28;8796;-61
2021/01/28 10:18:11;;;;;;;;;0.00;0.00;19.60;69.10;;;18.43;55.27;100477.25;5040571;28;8814;-59
2021/01/28 10:20:40;;;;;;;;;0.00;0.00;19.80;69.40;;;18.42;55.21;100472.91;5026154;28;8831;-61
2021/01/28 10:23:07;;;;;;;;;0.00;0.00;19.70;69.20;;;18.41;55.28;100465.84;5031306;28;8901;-61
2021/01/28 10:25:34;;;;;;;;;0.00;0.00;19.50;69.10;;;18.41;55.46;100468.53;5018412;28;8889;-60
2021/01/28 10:28:01;;;;;;;;;0.00;0.00;19.70;69.20;;;18.40;55.40;100476.72;5045433;28;8808;-60
2021/01/28 10:30:28;;;;;;;;;0.00;0.00;19.80;69.30;;;18.38;55.36;100482.22;5036867;28;8856;-60
2021/01/28 10:32:58;;;;;;;;;0.00;0.00;19.70;69.30;;;18.39;55.53;100493.75;5043308;28;8911;-61
2021/01/28 10:35:31;;;;;;;;;0.00;0.00;19.80;69.40;;;18.37;55.60;100501.97;5026227;28;8792;-61
2021/01/28 10:38:00;;;;;;;;;0.00;0.00;19.70;69.50;;;18.37;55.53;100495.78;5033013;28;8778;-60
2021/01/28 10:40:28;;;;;;;;;0.00;0.00;19.70;69.50;;;18.37;55.56;100501.97;5028539;28;8808;-60
2021/01/28 10:42:59;;;;;;;;;0.00;0.00;19.70;69.50;;;18.37;55.65;100518.00;5025515;28;8812;-60
2021/01/28 10:45:36;;;;;;;;;0.00;0.00;19.70;69.60;;;18.37;55.76;100519.84;5032145;28;8810;-60
2021/01/28 10:48:04;;;;;;;;;0.00;0.00;19.60;69.50;;;18.35;56.03;100525.34;5034106;28;8790;-60
2021/01/28 10:50:33;;;;;;;;;0.00;0.00;19.80;69.80;;;18.33;55.96;100524.66;5028284;28;8986;-59
2021/01/28 10:53:01;;;;;;;;;0.00;0.00;19.70;69.80;;;18.33;56.06;100546.03;5027024;28;8987;-59
2021/01/28 10:55:31;;;;;;;;;0.00;0.00;19.60;69.70;;;18.33;56.21;100531.84;5025066;28;9558;-59